sensor_id;sensor_type;location;lat;lon;timestamp;P1;durP1;ratioP1;P2;durP2;ratioP2
21215;SDS011;10765;50.954;5.322;2023-08-12T00:02:33;19.83;;;17.80;;
21215;SDS011;10765;50.954;5.322;2023-08-12T00:05:00;22.53;;;18.80;;
21215;SDS011;10765;50.954;5.322;2023-08-12T00:07:28;25.27;;;20.07;;
21215;SDS011;10765;50.954;5.322;2023-08-12T00:09:55;26.50;;;20.83;;
21215;SDS011;10765;50.954;5.322;2023-08-12T00:12:24;23.50;;;20.20;;
21215;SDS011;10765;50.954;5.322;2023-08-12T00:14:50;21.77;;;19.40;;
21215;SDS011;10765;50.954;5.322;2023-08-12T00:17:17;24.17;;;20.20;;
21215;SDS011;10765;50.954;5.322;2023-08-12T00:19:44;21.47;;;19.33;;
21215;SDS011;10765;50.954;5.322;2023-08-12T00:22:11;23.37;;;20.27;;
21215;SDS011;10765;50.954;5.322;2023-08-12T00:24:39;21.57;;;18.60;;
21215;SDS011;10765;50.954;5.322;2023-08-12T00:27:06;20.87;;;17.70;;
21215;SDS011;10765;50.954;5.322;2023-08-12T00:29:35;22.03;;;19.40;;
21215;SDS011;10765;50.954;5.322;2023-08-12T00:32:02;23.83;;;19.10;;
21215;SDS011;10765;50.954;5.322;2023-08-12T00:34:29;23.13;;;17.73;;
21215;SDS011;10765;50.954;5.322;2023-08-12T00:36:56;20.53;;;16.37;;
21215;SDS011;10765;50.954;5.322;2023-08-12T00:39:23;19.63;;;15.73;;
21215;SDS011;10765;50.954;5.322;2023-08-12T00:41:50;16.80;;;13.40;;
21215;SDS011;10765;50.954;5.322;2023-08-12T00:44:17;16.90;;;13.27;;
21215;SDS011;10765;50.954;5.322;2023-08-12T00:46:45;15.80;;;14.07;;
21215;SDS011;10765;50.954;5.322;2023-08-12T00:49:12;18.40;;;13.87;;
21215;SDS011;10765;50.954;5.322;2023-08-12T00:51:39;16.97;;;14.47;;
21215;SDS011;10765;50.954;5.322;2023-08-12T00:54:11;17.23;;;14.67;;
21215;SDS011;10765;50.954;5.322;2023-08-12T00:56:40;17.67;;;13.87;;
21215;SDS011;10765;50.954;5.322;2023-08-12T00:59:07;16.67;;;13.40;;
21215;SDS011;10765;50.954;5.322;2023-08-12T01:01:35;16.87;;;15.07;;
21215;SDS011;10765;50.954;5.322;2023-08-12T01:04:08;17.77;;;15.87;;
21215;SDS011;10765;50.954;5.322;2023-08-12T01:06:35;19.27;;;15.17;;
21215;SDS011;10765;50.954;5.322;2023-08-12T01:09:03;21.73;;;17.77;;
21215;SDS011;10765;50.954;5.322;2023-08-12T01:11:33;19.13;;;17.10;;
21215;SDS011;10765;50.954;5.322;2023-08-12T01:14:06;19.50;;;17.50;;
21215;SDS011;10765;50.954;5.322;2023-08-12T01:16:40;17.20;;;13.47;;
21215;SDS011;10765;50.954;5.322;2023-08-12T01:19:21;18.73;;;12.40;;
21215;SDS011;10765;50.954;5.322;2023-08-12T01:21:54;14.17;;;10.37;;
21215;SDS011;10765;50.954;5.322;2023-08-12T01:24:26;11.37;;;9.43;;
21215;SDS011;10765;50.954;5.322;2023-08-12T01:26:59;12.33;;;9.13;;
21215;SDS011;10765;50.954;5.322;2023-08-12T01:29:26;11.57;;;8.67;;
21215;SDS011;10765;50.954;5.322;2023-08-12T01:31:54;11.83;;;8.10;;
21215;SDS011;10765;50.954;5.322;2023-08-12T01:34:28;13.37;;;8.03;;
21215;SDS011;10765;50.954;5.322;2023-08-12T01:37:05;10.43;;;8.07;;
21215;SDS011;10765;50.954;5.322;2023-08-12T01:39:36;10.13;;;7.13;;
21215;SDS011;10765;50.954;5.322;2023-08-12T01:42:05;12.87;;;7.83;;
21215;SDS011;10765;50.954;5.322;2023-08-12T01:44:32;8.67;;;7.77;;
21215;SDS011;10765;50.954;5.322;2023-08-12T01:46:59;10.20;;;7.70;;
21215;SDS011;10765;50.954;5.322;2023-08-12T01:49:26;9.90;;;7.70;;
21215;SDS011;10765;50.954;5.322;2023-08-12T01:51:53;11.50;;;7.80;;
21215;SDS011;10765;50.954;5.322;2023-08-12T01:54:20;8.33;;;7.50;;
21215;SDS011;10765;50.954;5.322;2023-08-12T01:56:49;8.03;;;7.23;;
21215;SDS011;10765;50.954;5.322;2023-08-12T01:59:15;9.67;;;8.33;;
21215;SDS011;10765;50.954;5.322;2023-08-12T02:01:42;11.57;;;7.60;;
21215;SDS011;10765;50.954;5.322;2023-08-12T02:04:09;9.73;;;8.33;;
21215;SDS011;10765;50.954;5.322;2023-08-12T02:06:36;10.43;;;8.47;;
21215;SDS011;10765;50.954;5.322;2023-08-12T02:09:03;10.90;;;8.43;;
21215;SDS011;10765;50.954;5.322;2023-08-12T02:11:30;9.33;;;7.60;;
21215;SDS011;10765;50.954;5.322;2023-08-12T02:13:58;8.17;;;7.40;;
21215;SDS011;10765;50.954;5.322;2023-08-12T02:16:25;9.03;;;7.50;;
21215;SDS011;10765;50.954;5.322;2023-08-12T02:18:52;9.57;;;7.30;;
21215;SDS011;10765;50.954;5.322;2023-08-12T02:21:19;9.30;;;7.87;;
21215;SDS011;10765;50.954;5.322;2023-08-12T02:23:46;8.90;;;7.60;;
21215;SDS011;10765;50.954;5.322;2023-08-12T02:26:13;8.60;;;7.67;;
21215;SDS011;10765;50.954;5.322;2023-08-12T02:28:40;8.67;;;7.80;;
21215;SDS011;10765;50.954;5.322;2023-08-12T02:31:08;9.23;;;7.57;;
21215;SDS011;10765;50.954;5.322;2023-08-12T02:33:35;9.17;;;8.23;;
21215;SDS011;10765;50.954;5.322;2023-08-12T02:36:02;9.17;;;8.23;;
21215;SDS011;10765;50.954;5.322;2023-08-12T02:38:29;8.90;;;8.07;;
21215;SDS011;10765;50.954;5.322;2023-08-12T02:40:56;9.37;;;7.83;;
21215;SDS011;10765;50.954;5.322;2023-08-12T02:43:23;8.20;;;7.40;;
21215;SDS011;10765;50.954;5.322;2023-08-12T02:45:50;8.07;;;7.27;;
21215;SDS011;10765;50.954;5.322;2023-08-12T02:48:18;12.17;;;8.40;;
21215;SDS011;10765;50.954;5.322;2023-08-12T02:50:45;9.07;;;8.13;;
21215;SDS011;10765;50.954;5.322;2023-08-12T02:53:12;7.87;;;7.17;;
21215;SDS011;10765;50.954;5.322;2023-08-12T02:55:38;8.20;;;7.50;;
21215;SDS011;10765;50.954;5.322;2023-08-12T02:58:05;9.80;;;8.20;;
21215;SDS011;10765;50.954;5.322;2023-08-12T03:00:32;8.87;;;7.97;;
21215;SDS011;10765;50.954;5.322;2023-08-12T03:02:59;9.53;;;8.37;;
21215;SDS011;10765;50.954;5.322;2023-08-12T03:05:27;13.57;;;10.40;;
21215;SDS011;10765;50.954;5.322;2023-08-12T03:07:54;9.17;;;8.30;;
21215;SDS011;10765;50.954;5.322;2023-08-12T03:10:22;10.73;;;9.27;;
21215;SDS011;10765;50.954;5.322;2023-08-12T03:12:49;13.20;;;10.53;;
21215;SDS011;10765;50.954;5.322;2023-08-12T03:15:16;13.40;;;11.60;;
21215;SDS011;10765;50.954;5.322;2023-08-12T03:17:43;18.00;;;12.57;;
21215;SDS011;10765;50.954;5.322;2023-08-12T03:20:10;14.93;;;13.43;;
21215;SDS011;10765;50.954;5.322;2023-08-12T03:22:38;20.03;;;15.77;;
21215;SDS011;10765;50.954;5.322;2023-08-12T03:25:06;19.17;;;16.07;;
21215;SDS011;10765;50.954;5.322;2023-08-12T03:27:33;19.73;;;16.17;;
21215;SDS011;10765;50.954;5.322;2023-08-12T03:30:00;19.30;;;17.40;;
21215;SDS011;10765;50.954;5.322;2023-08-12T03:32:30;22.57;;;20.07;;
21215;SDS011;10765;50.954;5.322;2023-08-12T03:34:58;23.57;;;20.73;;
21215;SDS011;10765;50.954;5.322;2023-08-12T03:37:25;23.70;;;21.33;;
21215;SDS011;10765;50.954;5.322;2023-08-12T03:39:53;24.47;;;19.80;;
21215;SDS011;10765;50.954;5.322;2023-08-12T03:42:20;24.30;;;21.63;;
21215;SDS011;10765;50.954;5.322;2023-08-12T03:44:47;21.97;;;19.27;;
21215;SDS011;10765;50.954;5.322;2023-08-12T03:47:14;24.37;;;21.80;;
21215;SDS011;10765;50.954;5.322;2023-08-12T03:49:41;25.00;;;22.30;;
21215;SDS011;10765;50.954;5.322;2023-08-12T03:52:07;27.17;;;24.27;;
21215;SDS011;10765;50.954;5.322;2023-08-12T03:54:34;27.77;;;24.90;;
21215;SDS011;10765;50.954;5.322;2023-08-12T03:57:03;29.00;;;26.10;;
21215;SDS011;10765;50.954;5.322;2023-08-12T03:59:30;28.20;;;25.30;;
21215;SDS011;10765;50.954;5.322;2023-08-12T04:01:57;32.10;;;28.63;;
21215;SDS011;10765;50.954;5.322;2023-08-12T04:04:24;32.50;;;28.73;;
21215;SDS011;10765;50.954;5.322;2023-08-12T04:06:51;32.63;;;29.07;;
21215;SDS011;10765;50.954;5.322;2023-08-12T04:09:18;32.70;;;29.33;;
21215;SDS011;10765;50.954;5.322;2023-08-12T04:11:45;36.50;;;30.07;;
21215;SDS011;10765;50.954;5.322;2023-08-12T04:14:14;37.10;;;33.03;;
21215;SDS011;10765;50.954;5.322;2023-08-12T04:16:41;35.10;;;29.73;;
21215;SDS011;10765;50.954;5.322;2023-08-12T04:19:08;33.47;;;29.87;;
21215;SDS011;10765;50.954;5.322;2023-08-12T04:21:35;34.17;;;30.53;;
21215;SDS011;10765;50.954;5.322;2023-08-12T04:24:02;33.03;;;29.43;;
21215;SDS011;10765;50.954;5.322;2023-08-12T04:26:29;39.93;;;33.43;;
21215;SDS011;10765;50.954;5.322;2023-08-12T04:28:56;40.13;;;34.73;;
21215;SDS011;10765;50.954;5.322;2023-08-12T04:31:24;39.00;;;34.33;;
21215;SDS011;10765;50.954;5.322;2023-08-12T04:33:51;46.20;;;36.47;;
21215;SDS011;10765;50.954;5.322;2023-08-12T04:36:18;42.70;;;36.47;;
21215;SDS011;10765;50.954;5.322;2023-08-12T04:38:45;40.80;;;35.13;;
21215;SDS011;10765;50.954;5.322;2023-08-12T04:41:12;41.50;;;36.30;;
21215;SDS011;10765;50.954;5.322;2023-08-12T04:43:39;39.53;;;35.40;;
21215;SDS011;10765;50.954;5.322;2023-08-12T04:46:06;41.30;;;35.77;;
21215;SDS011;10765;50.954;5.322;2023-08-12T04:48:34;39.83;;;35.40;;
21215;SDS011;10765;50.954;5.322;2023-08-12T04:51:01;41.33;;;35.50;;
21215;SDS011;10765;50.954;5.322;2023-08-12T04:53:30;41.37;;;36.70;;
21215;SDS011;10765;50.954;5.322;2023-08-12T04:55:57;41.73;;;35.63;;
21215;SDS011;10765;50.954;5.322;2023-08-12T04:58:24;42.27;;;37.03;;
21215;SDS011;10765;50.954;5.322;2023-08-12T05:00:51;40.50;;;35.80;;
21215;SDS011;10765;50.954;5.322;2023-08-12T05:03:18;37.40;;;33.40;;
21215;SDS011;10765;50.954;5.322;2023-08-12T05:05:49;34.83;;;30.70;;
21215;SDS011;10765;50.954;5.322;2023-08-12T05:08:16;35.77;;;31.50;;
21215;SDS011;10765;50.954;5.322;2023-08-12T05:10:43;32.13;;;27.97;;
21215;SDS011;10765;50.954;5.322;2023-08-12T05:13:13;31.13;;;27.63;;
21215;SDS011;10765;50.954;5.322;2023-08-12T05:15:40;28.63;;;25.90;;
21215;SDS011;10765;50.954;5.322;2023-08-12T05:18:07;26.33;;;23.60;;
21215;SDS011;10765;50.954;5.322;2023-08-12T05:20:34;25.97;;;23.47;;
21215;SDS011;10765;50.954;5.322;2023-08-12T05:23:02;25.50;;;22.90;;
21215;SDS011;10765;50.954;5.322;2023-08-12T05:25:29;26.23;;;23.63;;
21215;SDS011;10765;50.954;5.322;2023-08-12T05:27:56;25.60;;;22.90;;
21215;SDS011;10765;50.954;5.322;2023-08-12T05:30:23;23.83;;;21.43;;
21215;SDS011;10765;50.954;5.322;2023-08-12T05:32:50;23.20;;;20.97;;
21215;SDS011;10765;50.954;5.322;2023-08-12T05:35:17;23.00;;;20.70;;
21215;SDS011;10765;50.954;5.322;2023-08-12T05:37:44;23.33;;;21.13;;
21215;SDS011;10765;50.954;5.322;2023-08-12T05:40:13;21.67;;;19.53;;
21215;SDS011;10765;50.954;5.322;2023-08-12T05:42:40;21.60;;;19.30;;
21215;SDS011;10765;50.954;5.322;2023-08-12T05:45:07;21.70;;;19.33;;
21215;SDS011;10765;50.954;5.322;2023-08-12T05:47:35;19.60;;;17.63;;
21215;SDS011;10765;50.954;5.322;2023-08-12T05:50:03;18.97;;;17.17;;
21215;SDS011;10765;50.954;5.322;2023-08-12T05:52:32;18.57;;;16.83;;
21215;SDS011;10765;50.954;5.322;2023-08-12T05:54:59;18.13;;;15.97;;
21215;SDS011;10765;50.954;5.322;2023-08-12T05:57:27;17.70;;;16.00;;
21215;SDS011;10765;50.954;5.322;2023-08-12T05:59:54;15.73;;;14.33;;
21215;SDS011;10765;50.954;5.322;2023-08-12T06:02:21;15.83;;;14.23;;
21215;SDS011;10765;50.954;5.322;2023-08-12T06:04:48;13.90;;;12.73;;
21215;SDS011;10765;50.954;5.322;2023-08-12T06:07:15;14.70;;;13.40;;
21215;SDS011;10765;50.954;5.322;2023-08-12T06:09:43;14.37;;;13.03;;
21215;SDS011;10765;50.954;5.322;2023-08-12T06:12:10;14.77;;;13.37;;
21215;SDS011;10765;50.954;5.322;2023-08-12T06:14:38;14.13;;;12.83;;
21215;SDS011;10765;50.954;5.322;2023-08-12T06:17:05;12.50;;;11.33;;
21215;SDS011;10765;50.954;5.322;2023-08-12T06:19:32;12.13;;;11.03;;
21215;SDS011;10765;50.954;5.322;2023-08-12T06:21:59;12.27;;;11.23;;
21215;SDS011;10765;50.954;5.322;2023-08-12T06:24:26;12.60;;;11.37;;
21215;SDS011;10765;50.954;5.322;2023-08-12T06:26:53;12.90;;;11.67;;
21215;SDS011;10765;50.954;5.322;2023-08-12T06:29:20;11.73;;;10.73;;
21215;SDS011;10765;50.954;5.322;2023-08-12T06:31:48;11.33;;;10.27;;
21215;SDS011;10765;50.954;5.322;2023-08-12T06:34:15;12.47;;;11.37;;
21215;SDS011;10765;50.954;5.322;2023-08-12T06:36:42;11.67;;;10.67;;
21215;SDS011;10765;50.954;5.322;2023-08-12T06:39:09;11.37;;;10.37;;
21215;SDS011;10765;50.954;5.322;2023-08-12T06:41:35;10.80;;;9.80;;
21215;SDS011;10765;50.954;5.322;2023-08-12T06:44:03;10.47;;;9.37;;
21215;SDS011;10765;50.954;5.322;2023-08-12T06:46:30;10.13;;;9.23;;
21215;SDS011;10765;50.954;5.322;2023-08-12T06:48:59;9.70;;;8.80;;
21215;SDS011;10765;50.954;5.322;2023-08-12T06:51:25;9.73;;;8.23;;
21215;SDS011;10765;50.954;5.322;2023-08-12T06:53:52;9.07;;;8.27;;
21215;SDS011;10765;50.954;5.322;2023-08-12T06:56:19;8.70;;;7.90;;
21215;SDS011;10765;50.954;5.322;2023-08-12T06:58:46;8.20;;;7.57;;
21215;SDS011;10765;50.954;5.322;2023-08-12T07:01:13;7.23;;;6.73;;
21215;SDS011;10765;50.954;5.322;2023-08-12T07:03:40;6.67;;;6.13;;
21215;SDS011;10765;50.954;5.322;2023-08-12T07:06:08;6.00;;;5.50;;
21215;SDS011;10765;50.954;5.322;2023-08-12T07:08:35;6.50;;;6.00;;
21215;SDS011;10765;50.954;5.322;2023-08-12T07:11:02;6.00;;;5.37;;
21215;SDS011;10765;50.954;5.322;2023-08-12T07:13:29;5.77;;;5.20;;
21215;SDS011;10765;50.954;5.322;2023-08-12T07:15:56;6.03;;;5.43;;
21215;SDS011;10765;50.954;5.322;2023-08-12T07:18:23;4.80;;;4.40;;
21215;SDS011;10765;50.954;5.322;2023-08-12T07:20:50;5.57;;;4.53;;
21215;SDS011;10765;50.954;5.322;2023-08-12T07:23:18;5.33;;;4.30;;
21215;SDS011;10765;50.954;5.322;2023-08-12T07:25:45;4.43;;;3.90;;
21215;SDS011;10765;50.954;5.322;2023-08-12T07:28:13;3.77;;;3.10;;
21215;SDS011;10765;50.954;5.322;2023-08-12T07:30:39;3.40;;;3.13;;
21215;SDS011;10765;50.954;5.322;2023-08-12T07:33:06;3.20;;;2.90;;
21215;SDS011;10765;50.954;5.322;2023-08-12T07:35:33;3.00;;;2.80;;
21215;SDS011;10765;50.954;5.322;2023-08-12T07:38:00;2.40;;;2.20;;
21215;SDS011;10765;50.954;5.322;2023-08-12T07:40:29;2.20;;;1.90;;
21215;SDS011;10765;50.954;5.322;2023-08-12T07:42:55;1.73;;;1.63;;
21215;SDS011;10765;50.954;5.322;2023-08-12T07:45:22;3.60;;;1.50;;
21215;SDS011;10765;50.954;5.322;2023-08-12T07:47:50;1.33;;;1.20;;
21215;SDS011;10765;50.954;5.322;2023-08-12T07:50:17;1.57;;;1.00;;
21215;SDS011;10765;50.954;5.322;2023-08-12T07:52:44;2.53;;;0.90;;
21215;SDS011;10765;50.954;5.322;2023-08-12T07:55:11;0.80;;;0.80;;
21215;SDS011;10765;50.954;5.322;2023-08-12T07:57:39;1.43;;;0.80;;
21215;SDS011;10765;50.954;5.322;2023-08-12T08:00:07;1.03;;;0.70;;
21215;SDS011;10765;50.954;5.322;2023-08-12T08:02:34;1.70;;;0.73;;
21215;SDS011;10765;50.954;5.322;2023-08-12T08:05:01;1.00;;;0.63;;
21215;SDS011;10765;50.954;5.322;2023-08-12T08:07:29;1.83;;;0.67;;
21215;SDS011;10765;50.954;5.322;2023-08-12T08:09:56;1.60;;;0.60;;
21215;SDS011;10765;50.954;5.322;2023-08-12T08:12:23;1.93;;;0.57;;
21215;SDS011;10765;50.954;5.322;2023-08-12T08:14:51;2.30;;;0.57;;
21215;SDS011;10765;50.954;5.322;2023-08-12T08:17:18;1.23;;;0.53;;
21215;SDS011;10765;50.954;5.322;2023-08-12T08:19:45;0.50;;;0.50;;
21215;SDS011;10765;50.954;5.322;2023-08-12T08:22:11;0.80;;;0.40;;
21215;SDS011;10765;50.954;5.322;2023-08-12T08:24:38;1.63;;;0.50;;
21215;SDS011;10765;50.954;5.322;2023-08-12T08:27:05;0.53;;;0.33;;
21215;SDS011;10765;50.954;5.322;2023-08-12T08:29:32;0.70;;;0.40;;
21215;SDS011;10765;50.954;5.322;2023-08-12T08:32:00;0.93;;;0.40;;
21215;SDS011;10765;50.954;5.322;2023-08-12T08:34:28;0.50;;;0.30;;
21215;SDS011;10765;50.954;5.322;2023-08-12T08:36:54;0.60;;;0.20;;
21215;SDS011;10765;50.954;5.322;2023-08-12T08:39:21;0.70;;;0.40;;
21215;SDS011;10765;50.954;5.322;2023-08-12T08:41:49;1.37;;;0.50;;
21215;SDS011;10765;50.954;5.322;2023-08-12T08:44:16;0.87;;;0.40;;
21215;SDS011;10765;50.954;5.322;2023-08-12T08:46:47;0.40;;;0.40;;
21215;SDS011;10765;50.954;5.322;2023-08-12T08:49:17;0.60;;;0.60;;
21215;SDS011;10765;50.954;5.322;2023-08-12T08:51:44;0.60;;;0.57;;
21215;SDS011;10765;50.954;5.322;2023-08-12T08:54:13;0.97;;;0.50;;
21215;SDS011;10765;50.954;5.322;2023-08-12T08:56:40;0.87;;;0.70;;
21215;SDS011;10765;50.954;5.322;2023-08-12T08:59:07;0.87;;;0.57;;
21215;SDS011;10765;50.954;5.322;2023-08-12T09:01:34;3.00;;;0.50;;
21215;SDS011;10765;50.954;5.322;2023-08-12T09:04:02;1.13;;;0.50;;
21215;SDS011;10765;50.954;5.322;2023-08-12T09:06:31;2.17;;;0.50;;
21215;SDS011;10765;50.954;5.322;2023-08-12T09:08:58;0.50;;;0.50;;
21215;SDS011;10765;50.954;5.322;2023-08-12T09:11:27;0.50;;;0.50;;
21215;SDS011;10765;50.954;5.322;2023-08-12T09:13:55;1.80;;;0.70;;
21215;SDS011;10765;50.954;5.322;2023-08-12T09:16:22;0.50;;;0.50;;
21215;SDS011;10765;50.954;5.322;2023-08-12T09:18:52;0.83;;;0.60;;
21215;SDS011;10765;50.954;5.322;2023-08-12T09:21:21;1.17;;;0.70;;
21215;SDS011;10765;50.954;5.322;2023-08-12T09:23:49;0.53;;;0.53;;
21215;SDS011;10765;50.954;5.322;2023-08-12T09:26:17;0.50;;;0.50;;
21215;SDS011;10765;50.954;5.322;2023-08-12T09:28:44;0.77;;;0.73;;
21215;SDS011;10765;50.954;5.322;2023-08-12T09:31:21;0.70;;;0.70;;
21215;SDS011;10765;50.954;5.322;2023-08-12T09:33:49;2.37;;;1.10;;
21215;SDS011;10765;50.954;5.322;2023-08-12T09:36:16;1.80;;;0.70;;
21215;SDS011;10765;50.954;5.322;2023-08-12T09:38:43;2.50;;;1.00;;
21215;SDS011;10765;50.954;5.322;2023-08-12T09:41:12;0.93;;;0.80;;
21215;SDS011;10765;50.954;5.322;2023-08-12T09:43:40;1.30;;;1.17;;
21215;SDS011;10765;50.954;5.322;2023-08-12T09:46:10;0.80;;;0.80;;
21215;SDS011;10765;50.954;5.322;2023-08-12T09:48:38;0.80;;;0.80;;
21215;SDS011;10765;50.954;5.322;2023-08-12T09:51:05;1.30;;;0.90;;
21215;SDS011;10765;50.954;5.322;2023-08-12T09:53:32;0.90;;;0.90;;
21215;SDS011;10765;50.954;5.322;2023-08-12T09:56:00;0.87;;;0.80;;
21215;SDS011;10765;50.954;5.322;2023-08-12T09:58:34;1.07;;;1.07;;
21215;SDS011;10765;50.954;5.322;2023-08-12T10:01:02;1.13;;;0.90;;
21215;SDS011;10765;50.954;5.322;2023-08-12T10:03:29;1.00;;;1.00;;
21215;SDS011;10765;50.954;5.322;2023-08-12T10:05:58;1.13;;;1.10;;
21215;SDS011;10765;50.954;5.322;2023-08-12T10:08:26;1.13;;;1.10;;
21215;SDS011;10765;50.954;5.322;2023-08-12T10:10:54;1.70;;;1.60;;
21215;SDS011;10765;50.954;5.322;2023-08-12T10:13:21;9.00;;;8.60;;
21215;SDS011;10765;50.954;5.322;2023-08-12T10:15:50;0.70;;;0.60;;
21215;SDS011;10765;50.954;5.322;2023-08-12T10:18:18;1.27;;;0.90;;
21215;SDS011;10765;50.954;5.322;2023-08-12T10:20:46;0.90;;;0.80;;
21215;SDS011;10765;50.954;5.322;2023-08-12T10:23:15;0.83;;;0.80;;
21215;SDS011;10765;50.954;5.322;2023-08-12T10:25:43;1.93;;;0.87;;
21215;SDS011;10765;50.954;5.322;2023-08-12T10:28:11;2.03;;;0.70;;
21215;SDS011;10765;50.954;5.322;2023-08-12T10:30:39;1.13;;;0.90;;
21215;SDS011;10765;50.954;5.322;2023-08-12T10:33:08;5.90;;;5.40;;
21215;SDS011;10765;50.954;5.322;2023-08-12T10:35:45;24.60;;;23.00;;
21215;SDS011;10765;50.954;5.322;2023-08-12T10:38:14;1.67;;;1.57;;
21215;SDS011;10765;50.954;5.322;2023-08-12T10:40:44;0.90;;;0.90;;
21215;SDS011;10765;50.954;5.322;2023-08-12T10:43:11;1.10;;;1.10;;
21215;SDS011;10765;50.954;5.322;2023-08-12T10:45:42;1.40;;;1.30;;
21215;SDS011;10765;50.954;5.322;2023-08-12T10:48:17;1.30;;;1.10;;
21215;SDS011;10765;50.954;5.322;2023-08-12T10:50:46;2.07;;;1.87;;
21215;SDS011;10765;50.954;5.322;2023-08-12T10:53:24;3.27;;;2.30;;
21215;SDS011;10765;50.954;5.322;2023-08-12T10:55:56;10.27;;;9.77;;
21215;SDS011;10765;50.954;5.322;2023-08-12T10:58:24;1.70;;;1.60;;
21215;SDS011;10765;50.954;5.322;2023-08-12T11:00:55;1.87;;;1.77;;
21215;SDS011;10765;50.954;5.322;2023-08-12T11:03:24;1.90;;;1.70;;
21215;SDS011;10765;50.954;5.322;2023-08-12T11:05:52;1.80;;;1.70;;
21215;SDS011;10765;50.954;5.322;2023-08-12T11:08:24;2.63;;;2.33;;
21215;SDS011;10765;50.954;5.322;2023-08-12T11:10:54;2.80;;;2.60;;
21215;SDS011;10765;50.954;5.322;2023-08-12T11:13:23;3.03;;;2.83;;
21215;SDS011;10765;50.954;5.322;2023-08-12T11:15:53;12.20;;;11.57;;
21215;SDS011;10765;50.954;5.322;2023-08-12T11:18:34;2.70;;;2.13;;
21215;SDS011;10765;50.954;5.322;2023-08-12T11:21:01;2.80;;;2.17;;
21215;SDS011;10765;50.954;5.322;2023-08-12T11:23:29;3.20;;;2.30;;
21215;SDS011;10765;50.954;5.322;2023-08-12T11:25:56;3.07;;;2.10;;
21215;SDS011;10765;50.954;5.322;2023-08-12T11:28:26;2.60;;;2.13;;
21215;SDS011;10765;50.954;5.322;2023-08-12T11:30:53;2.87;;;2.47;;
21215;SDS011;10765;50.954;5.322;2023-08-12T11:33:21;3.57;;;2.97;;
21215;SDS011;10765;50.954;5.322;2023-08-12T11:35:51;3.43;;;3.13;;
21215;SDS011;10765;50.954;5.322;2023-08-12T11:38:18;4.17;;;1.80;;
21215;SDS011;10765;50.954;5.322;2023-08-12T11:40:45;3.57;;;1.70;;
21215;SDS011;10765;50.954;5.322;2023-08-12T11:43:11;2.13;;;1.87;;
21215;SDS011;10765;50.954;5.322;2023-08-12T11:45:41;1.77;;;1.40;;
21215;SDS011;10765;50.954;5.322;2023-08-12T11:48:09;3.10;;;1.33;;
21215;SDS011;10765;50.954;5.322;2023-08-12T11:50:36;3.43;;;1.80;;
21215;SDS011;10765;50.954;5.322;2023-08-12T11:53:05;2.47;;;1.93;;
21215;SDS011;10765;50.954;5.322;2023-08-12T11:55:32;8.73;;;8.13;;
21215;SDS011;10765;50.954;5.322;2023-08-12T11:57:59;4.57;;;1.40;;
21215;SDS011;10765;50.954;5.322;2023-08-12T12:00:27;3.30;;;1.30;;
21215;SDS011;10765;50.954;5.322;2023-08-12T12:02:54;2.60;;;1.43;;
21215;SDS011;10765;50.954;5.322;2023-08-12T12:05:22;1.57;;;1.10;;
21215;SDS011;10765;50.954;5.322;2023-08-12T12:07:51;3.77;;;1.40;;
21215;SDS011;10765;50.954;5.322;2023-08-12T12:10:20;3.20;;;1.30;;
21215;SDS011;10765;50.954;5.322;2023-08-12T12:12:47;2.67;;;1.27;;
21215;SDS011;10765;50.954;5.322;2023-08-12T12:15:14;2.10;;;1.20;;
21215;SDS011;10765;50.954;5.322;2023-08-12T12:17:41;2.10;;;1.30;;
21215;SDS011;10765;50.954;5.322;2023-08-12T12:20:09;3.23;;;1.53;;
21215;SDS011;10765;50.954;5.322;2023-08-12T12:22:40;2.97;;;1.40;;
21215;SDS011;10765;50.954;5.322;2023-08-12T12:25:09;3.47;;;1.60;;
21215;SDS011;10765;50.954;5.322;2023-08-12T12:27:38;3.97;;;1.50;;
21215;SDS011;10765;50.954;5.322;2023-08-12T12:30:07;3.30;;;1.43;;
21215;SDS011;10765;50.954;5.322;2023-08-12T12:32:35;5.63;;;1.40;;
21215;SDS011;10765;50.954;5.322;2023-08-12T12:35:02;2.23;;;1.07;;
21215;SDS011;10765;50.954;5.322;2023-08-12T12:37:32;2.80;;;1.20;;
21215;SDS011;10765;50.954;5.322;2023-08-12T12:39:59;3.83;;;1.67;;
21215;SDS011;10765;50.954;5.322;2023-08-12T12:42:28;4.20;;;1.43;;
21215;SDS011;10765;50.954;5.322;2023-08-12T12:44:56;4.80;;;1.50;;
21215;SDS011;10765;50.954;5.322;2023-08-12T12:47:23;3.33;;;1.70;;
21215;SDS011;10765;50.954;5.322;2023-08-12T12:49:50;3.90;;;1.50;;
21215;SDS011;10765;50.954;5.322;2023-08-12T12:52:17;4.23;;;1.40;;
21215;SDS011;10765;50.954;5.322;2023-08-12T12:54:44;5.60;;;1.73;;
21215;SDS011;10765;50.954;5.322;2023-08-12T12:57:10;4.00;;;1.60;;
21215;SDS011;10765;50.954;5.322;2023-08-12T12:59:37;3.77;;;1.70;;
21215;SDS011;10765;50.954;5.322;2023-08-12T13:02:06;4.40;;;1.63;;
21215;SDS011;10765;50.954;5.322;2023-08-12T13:04:32;3.67;;;1.83;;
21215;SDS011;10765;50.954;5.322;2023-08-12T13:07:01;4.20;;;1.57;;
21215;SDS011;10765;50.954;5.322;2023-08-12T13:09:28;3.00;;;1.93;;
21215;SDS011;10765;50.954;5.322;2023-08-12T13:11:56;3.90;;;1.77;;
21215;SDS011;10765;50.954;5.322;2023-08-12T13:14:23;2.90;;;1.43;;
21215;SDS011;10765;50.954;5.322;2023-08-12T13:16:50;3.60;;;1.57;;
21215;SDS011;10765;50.954;5.322;2023-08-12T13:19:18;3.50;;;1.50;;
21215;SDS011;10765;50.954;5.322;2023-08-12T13:21:45;3.63;;;1.30;;
21215;SDS011;10765;50.954;5.322;2023-08-12T13:24:12;3.90;;;1.80;;
21215;SDS011;10765;50.954;5.322;2023-08-12T13:26:40;2.57;;;1.50;;
21215;SDS011;10765;50.954;5.322;2023-08-12T13:29:07;3.30;;;1.47;;
21215;SDS011;10765;50.954;5.322;2023-08-12T13:31:34;4.27;;;1.70;;
21215;SDS011;10765;50.954;5.322;2023-08-12T13:34:01;4.13;;;1.70;;
21215;SDS011;10765;50.954;5.322;2023-08-12T13:36:29;2.67;;;1.30;;
21215;SDS011;10765;50.954;5.322;2023-08-12T13:38:56;2.43;;;1.50;;
21215;SDS011;10765;50.954;5.322;2023-08-12T13:41:23;2.20;;;1.47;;
21215;SDS011;10765;50.954;5.322;2023-08-12T13:43:50;3.17;;;1.40;;
21215;SDS011;10765;50.954;5.322;2023-08-12T13:46:17;2.47;;;1.30;;
21215;SDS011;10765;50.954;5.322;2023-08-12T13:48:43;3.23;;;1.63;;
21215;SDS011;10765;50.954;5.322;2023-08-12T13:51:10;2.70;;;1.33;;
21215;SDS011;10765;50.954;5.322;2023-08-12T13:53:38;4.43;;;1.50;;
21215;SDS011;10765;50.954;5.322;2023-08-12T13:56:05;3.43;;;1.47;;
21215;SDS011;10765;50.954;5.322;2023-08-12T13:58:32;3.07;;;1.30;;
21215;SDS011;10765;50.954;5.322;2023-08-12T14:00:59;4.53;;;1.30;;
21215;SDS011;10765;50.954;5.322;2023-08-12T14:03:26;3.23;;;1.70;;
21215;SDS011;10765;50.954;5.322;2023-08-12T14:05:53;2.30;;;1.37;;
21215;SDS011;10765;50.954;5.322;2023-08-12T14:08:20;4.60;;;1.60;;
21215;SDS011;10765;50.954;5.322;2023-08-12T14:10:48;2.90;;;1.20;;
21215;SDS011;10765;50.954;5.322;2023-08-12T14:13:16;3.53;;;1.50;;
21215;SDS011;10765;50.954;5.322;2023-08-12T14:15:43;2.70;;;1.30;;
21215;SDS011;10765;50.954;5.322;2023-08-12T14:18:10;4.33;;;1.50;;
21215;SDS011;10765;50.954;5.322;2023-08-12T14:20:37;3.67;;;1.53;;
21215;SDS011;10765;50.954;5.322;2023-08-12T14:23:04;4.20;;;1.17;;
21215;SDS011;10765;50.954;5.322;2023-08-12T14:25:30;2.70;;;1.27;;
21215;SDS011;10765;50.954;5.322;2023-08-12T14:27:59;2.97;;;1.47;;
21215;SDS011;10765;50.954;5.322;2023-08-12T14:30:26;3.57;;;1.50;;
21215;SDS011;10765;50.954;5.322;2023-08-12T14:32:53;3.97;;;1.43;;
21215;SDS011;10765;50.954;5.322;2023-08-12T14:35:20;2.77;;;1.60;;
21215;SDS011;10765;50.954;5.322;2023-08-12T14:37:47;3.20;;;1.47;;
21215;SDS011;10765;50.954;5.322;2023-08-12T14:40:14;4.17;;;1.47;;
21215;SDS011;10765;50.954;5.322;2023-08-12T14:42:41;2.30;;;1.47;;